Pendleton, Kentucky
Current Conditions -  °F | °C
As of 5:53 AM on Saturday 25 Oct 2014 (Local Time) from KLOU Reporting Station
Haze Haze  
Wind Chill: 47°   Ceiling: Unl
Heat Index: 47°   Visibility: 6mi
Dew Point: 45°   Wind: 3mph
Humidity: 93%   Direction: 220°SW
Pressure: 30.04"   Gusts: NA
Location:  38.46°N, 85.3°W
Report Text: KLOU 250953Z AUTO 22003KT 6SM BR CLR 08/07 A3004 RMK AO2 SLP170 T00830072
Loading
Personal Weather Stations






























Interactive Weather Map
Tropical Storm Tracking
New forecast layout! Learn more

10-Day Weather Forecast

Advertisements
Track Severe Weather on mobile